sensor_id;sensor_type;location;lat;lon;timestamp;temperature;humidity
1996;DHT22;38556;47.068;15.408;2023-04-01T00:02:17;10.20;99.90
1996;DHT22;38556;47.068;15.408;2023-04-01T00:04:44;10.20;99.90
1996;DHT22;38556;47.068;15.408;2023-04-01T00:07:11;10.20;99.90
1996;DHT22;38556;47.068;15.408;2023-04-01T00:09:38;10.20;99.90
1996;DHT22;38556;47.068;15.408;2023-04-01T00:12:07;10.10;99.90
1996;DHT22;38556;47.068;15.408;2023-04-01T00:14:35;10.00;99.90
1996;DHT22;38556;47.068;15.408;2023-04-01T00:17:03;9.60;99.90
1996;DHT22;38556;47.068;15.408;2023-04-01T00:19:30;9.50;99.90
1996;DHT22;38556;47.068;15.408;2023-04-01T00:21:58;9.50;99.90
1996;DHT22;38556;47.068;15.408;2023-04-01T00:24:25;9.50;99.90
1996;DHT22;38556;47.068;15.408;2023-04-01T00:26:52;9.50;99.90
1996;DHT22;38556;47.068;15.408;2023-04-01T00:29:22;9.70;99.90
1996;DHT22;38556;47.068;15.408;2023-04-01T00:31:49;9.70;99.90
1996;DHT22;38556;47.068;15.408;2023-04-01T00:34:17;9.70;99.90
1996;DHT22;38556;47.068;15.408;2023-04-01T00:36:44;9.60;99.90
1996;DHT22;38556;47.068;15.408;2023-04-01T00:39:11;9.70;99.90
1996;DHT22;38556;47.068;15.408;2023-04-01T00:41:39;9.90;99.90
1996;DHT22;38556;47.068;15.408;2023-04-01T00:44:15;10.00;99.90
1996;DHT22;38556;47.068;15.408;2023-04-01T00:46:45;10.10;99.90
1996;DHT22;38556;47.068;15.408;2023-04-01T00:49:13;10.10;99.90
1996;DHT22;38556;47.068;15.408;2023-04-01T00:51:41;10.10;99.90
1996;DHT22;38556;47.068;15.408;2023-04-01T00:54:09;12.30;99.90
1996;DHT22;38556;47.068;15.408;2023-04-01T00:56:41;10.10;99.90
1996;DHT22;38556;47.068;15.408;2023-04-01T00:59:14;10.00;99.90
1996;DHT22;38556;47.068;15.408;2023-04-01T01:01:42;9.80;99.90
1996;DHT22;38556;47.068;15.408;2023-04-01T01:04:23;9.80;99.90
1996;DHT22;38556;47.068;15.408;2023-04-01T01:06:57;9.90;99.90
1996;DHT22;38556;47.068;15.408;2023-04-01T01:09:36;9.70;99.90
1996;DHT22;38556;47.068;15.408;2023-04-01T01:12:10;9.60;99.90
1996;DHT22;38556;47.068;15.408;2023-04-01T01:14:52;9.50;99.90
1996;DHT22;38556;47.068;15.408;2023-04-01T01:26:39;9.70;99.90
1996;DHT22;38556;47.068;15.408;2023-04-01T01:29:13;9.70;99.90
1996;DHT22;38556;47.068;15.408;2023-04-01T01:31:50;9.80;99.90
1996;DHT22;38556;47.068;15.408;2023-04-01T01:34:22;9.80;99.90
1996;DHT22;38556;47.068;15.408;2023-04-01T01:36:56;9.80;99.90
1996;DHT22;38556;47.068;15.408;2023-04-01T01:39:28;9.80;99.90
1996;DHT22;38556;47.068;15.408;2023-04-01T01:42:00;9.90;99.90
1996;DHT22;38556;47.068;15.408;2023-04-01T01:44:28;9.90;99.90
1996;DHT22;38556;47.068;15.408;2023-04-01T01:46:57;9.90;99.90
1996;DHT22;38556;47.068;15.408;2023-04-01T01:49:25;9.90;99.90
1996;DHT22;38556;47.068;15.408;2023-04-01T01:51:54;9.90;99.90
1996;DHT22;38556;47.068;15.408;2023-04-01T01:54:22;9.90;99.90
1996;DHT22;38556;47.068;15.408;2023-04-01T01:56:54;9.90;99.90
1996;DHT22;38556;47.068;15.408;2023-04-01T01:59:24;9.90;99.90
1996;DHT22;38556;47.068;15.408;2023-04-01T02:01:55;9.90;99.90
1996;DHT22;38556;47.068;15.408;2023-04-01T02:04:25;9.90;99.90
1996;DHT22;38556;47.068;15.408;2023-04-01T02:06:58;9.90;99.90
1996;DHT22;38556;47.068;15.408;2023-04-01T02:09:27;9.90;99.90
1996;DHT22;38556;47.068;15.408;2023-04-01T02:11:57;10.00;99.90
1996;DHT22;38556;47.068;15.408;2023-04-01T02:14:27;10.00;99.90
1996;DHT22;38556;47.068;15.408;2023-04-01T02:16:59;10.00;99.90
1996;DHT22;38556;47.068;15.408;2023-04-01T02:19:30;10.00;99.90
1996;DHT22;38556;47.068;15.408;2023-04-01T02:22:03;10.00;99.90
1996;DHT22;38556;47.068;15.408;2023-04-01T02:24:32;10.00;99.90
1996;DHT22;38556;47.068;15.408;2023-04-01T02:27:01;10.00;99.90
1996;DHT22;38556;47.068;15.408;2023-04-01T02:29:28;10.00;99.90
1996;DHT22;38556;47.068;15.408;2023-04-01T02:31:56;10.00;99.90
1996;DHT22;38556;47.068;15.408;2023-04-01T02:34:24;10.00;99.90
1996;DHT22;38556;47.068;15.408;2023-04-01T02:36:52;9.90;99.90
1996;DHT22;38556;47.068;15.408;2023-04-01T02:39:22;9.80;99.90
1996;DHT22;38556;47.068;15.408;2023-04-01T02:41:51;9.80;99.90
1996;DHT22;38556;47.068;15.408;2023-04-01T02:44:19;9.80;99.90
1996;DHT22;38556;47.068;15.408;2023-04-01T02:46:46;9.70;99.90
1996;DHT22;38556;47.068;15.408;2023-04-01T02:49:13;9.70;99.90
1996;DHT22;38556;47.068;15.408;2023-04-01T02:51:40;9.70;99.90
1996;DHT22;38556;47.068;15.408;2023-04-01T02:54:08;9.80;99.90
1996;DHT22;38556;47.068;15.408;2023-04-01T02:59:04;9.80;99.90
1996;DHT22;38556;47.068;15.408;2023-04-01T03:01:31;9.80;99.90
1996;DHT22;38556;47.068;15.408;2023-04-01T03:03:59;9.80;99.90
1996;DHT22;38556;47.068;15.408;2023-04-01T03:08:54;9.80;99.90
1996;DHT22;38556;47.068;15.408;2023-04-01T03:11:21;9.80;99.90
1996;DHT22;38556;47.068;15.408;2023-04-01T03:13:50;9.80;99.90
1996;DHT22;38556;47.068;15.408;2023-04-01T03:16:17;9.80;99.90
1996;DHT22;38556;47.068;15.408;2023-04-01T03:18:44;9.80;99.90
1996;DHT22;38556;47.068;15.408;2023-04-01T03:21:13;9.80;99.90
1996;DHT22;38556;47.068;15.408;2023-04-01T03:23:41;9.80;99.90
1996;DHT22;38556;47.068;15.408;2023-04-01T03:26:08;9.80;99.90
1996;DHT22;38556;47.068;15.408;2023-04-01T03:28:36;9.70;99.90
1996;DHT22;38556;47.068;15.408;2023-04-01T03:31:05;9.70;99.90
1996;DHT22;38556;47.068;15.408;2023-04-01T03:33:32;9.60;99.90
1996;DHT22;38556;47.068;15.408;2023-04-01T03:35:59;9.70;99.90
1996;DHT22;38556;47.068;15.408;2023-04-01T03:38:27;9.70;99.90
1996;DHT22;38556;47.068;15.408;2023-04-01T03:40:54;9.70;99.90
1996;DHT22;38556;47.068;15.408;2023-04-01T03:43:21;9.70;99.90
1996;DHT22;38556;47.068;15.408;2023-04-01T03:45:50;9.70;99.90
1996;DHT22;38556;47.068;15.408;2023-04-01T03:48:18;9.80;99.90
1996;DHT22;38556;47.068;15.408;2023-04-01T03:50:46;9.80;99.90
1996;DHT22;38556;47.068;15.408;2023-04-01T03:53:14;9.80;99.90
1996;DHT22;38556;47.068;15.408;2023-04-01T03:55:42;9.80;99.90
1996;DHT22;38556;47.068;15.408;2023-04-01T03:58:09;9.80;99.90
1996;DHT22;38556;47.068;15.408;2023-04-01T04:00:36;9.80;99.90
1996;DHT22;38556;47.068;15.408;2023-04-01T04:03:05;9.80;99.90
1996;DHT22;38556;47.068;15.408;2023-04-01T04:05:33;9.80;99.90
1996;DHT22;38556;47.068;15.408;2023-04-01T04:08:01;9.80;99.90
1996;DHT22;38556;47.068;15.408;2023-04-01T04:10:28;9.80;99.90
1996;DHT22;38556;47.068;15.408;2023-04-01T04:12:55;9.80;99.90
1996;DHT22;38556;47.068;15.408;2023-04-01T04:15:23;9.80;99.90
1996;DHT22;38556;47.068;15.408;2023-04-01T04:17:50;9.80;99.90
1996;DHT22;38556;47.068;15.408;2023-04-01T04:20:17;9.70;99.90
1996;DHT22;38556;47.068;15.408;2023-04-01T04:22:47;9.80;99.90
1996;DHT22;38556;47.068;15.408;2023-04-01T04:25:14;7.40;99.90
1996;DHT22;38556;47.068;15.408;2023-04-01T04:27:41;9.50;99.90
1996;DHT22;38556;47.068;15.408;2023-04-01T04:30:09;9.50;99.90
1996;DHT22;38556;47.068;15.408;2023-04-01T04:32:36;9.50;99.90
1996;DHT22;38556;47.068;15.408;2023-04-01T04:35:05;9.50;99.90
1996;DHT22;38556;47.068;15.408;2023-04-01T04:37:33;9.50;99.90
1996;DHT22;38556;47.068;15.408;2023-04-01T04:40:02;9.50;99.90
1996;DHT22;38556;47.068;15.408;2023-04-01T04:42:29;9.60;99.90
1996;DHT22;38556;47.068;15.408;2023-04-01T04:44:57;9.60;99.90
1996;DHT22;38556;47.068;15.408;2023-04-01T04:47:24;9.60;99.90
1996;DHT22;38556;47.068;15.408;2023-04-01T04:49:51;9.60;99.90
1996;DHT22;38556;47.068;15.408;2023-04-01T04:52:19;9.40;99.90
1996;DHT22;38556;47.068;15.408;2023-04-01T04:54:46;9.30;99.90
1996;DHT22;38556;47.068;15.408;2023-04-01T04:57:14;9.20;99.90
1996;DHT22;38556;47.068;15.408;2023-04-01T04:59:42;8.90;99.90
1996;DHT22;38556;47.068;15.408;2023-04-01T05:02:09;8.70;99.90
1996;DHT22;38556;47.068;15.408;2023-04-01T05:04:37;8.60;99.90
1996;DHT22;38556;47.068;15.408;2023-04-01T05:07:04;8.80;99.90
1996;DHT22;38556;47.068;15.408;2023-04-01T05:09:31;8.90;99.90
1996;DHT22;38556;47.068;15.408;2023-04-01T05:11:59;9.10;99.90
1996;DHT22;38556;47.068;15.408;2023-04-01T05:14:28;9.10;99.90
1996;DHT22;38556;47.068;15.408;2023-04-01T05:16:55;9.20;99.90
1996;DHT22;38556;47.068;15.408;2023-04-01T05:19:22;9.20;99.90
1996;DHT22;38556;47.068;15.408;2023-04-01T05:21:50;9.30;99.90
1996;DHT22;38556;47.068;15.408;2023-04-01T05:24:18;9.20;99.90
1996;DHT22;38556;47.068;15.408;2023-04-01T05:26:46;9.30;99.90
1996;DHT22;38556;47.068;15.408;2023-04-01T05:29:13;9.40;99.90
1996;DHT22;38556;47.068;15.408;2023-04-01T05:31:42;9.40;99.90
1996;DHT22;38556;47.068;15.408;2023-04-01T05:34:09;9.50;99.90
1996;DHT22;38556;47.068;15.408;2023-04-01T05:36:36;9.40;99.90
1996;DHT22;38556;47.068;15.408;2023-04-01T05:39:04;9.30;99.90
1996;DHT22;38556;47.068;15.408;2023-04-01T05:41:31;9.40;99.90
1996;DHT22;38556;47.068;15.408;2023-04-01T05:43:58;9.40;99.90
1996;DHT22;38556;47.068;15.408;2023-04-01T05:46:25;9.40;99.90
1996;DHT22;38556;47.068;15.408;2023-04-01T05:48:54;9.40;99.90
1996;DHT22;38556;47.068;15.408;2023-04-01T05:51:22;9.40;99.90
1996;DHT22;38556;47.068;15.408;2023-04-01T05:53:49;9.40;99.90
1996;DHT22;38556;47.068;15.408;2023-04-01T05:56:16;9.50;99.90
1996;DHT22;38556;47.068;15.408;2023-04-01T05:58:46;9.50;99.90
1996;DHT22;38556;47.068;15.408;2023-04-01T06:01:14;9.40;99.90
1996;DHT22;38556;47.068;15.408;2023-04-01T06:03:41;9.20;99.90
1996;DHT22;38556;47.068;15.408;2023-04-01T06:06:14;9.30;99.90
1996;DHT22;38556;47.068;15.408;2023-04-01T06:08:43;9.40;99.90
1996;DHT22;38556;47.068;15.408;2023-04-01T06:11:22;9.60;99.90
1996;DHT22;38556;47.068;15.408;2023-04-01T06:14:17;9.60;99.90
1996;DHT22;38556;47.068;15.408;2023-04-01T06:17:05;9.70;99.90
1996;DHT22;38556;47.068;15.408;2023-04-01T06:19:44;9.80;99.90
1996;DHT22;38556;47.068;15.408;2023-04-01T06:25:37;9.80;99.90
1996;DHT22;38556;47.068;15.408;2023-04-01T06:28:41;9.90;99.90
1996;DHT22;38556;47.068;15.408;2023-04-01T06:31:16;10.00;99.90
1996;DHT22;38556;47.068;15.408;2023-04-01T06:33:56;10.10;99.90
1996;DHT22;38556;47.068;15.408;2023-04-01T06:36:42;10.30;99.90
1996;DHT22;38556;47.068;15.408;2023-04-01T06:39:41;10.30;99.90
1996;DHT22;38556;47.068;15.408;2023-04-01T06:42:36;10.40;99.90
1996;DHT22;38556;47.068;15.408;2023-04-01T06:45:13;10.50;99.90
1996;DHT22;38556;47.068;15.408;2023-04-01T06:47:54;10.50;99.90
1996;DHT22;38556;47.068;15.408;2023-04-01T06:50:28;10.50;99.90
1996;DHT22;38556;47.068;15.408;2023-04-01T06:53:02;10.60;99.90
1996;DHT22;38556;47.068;15.408;2023-04-01T06:55:38;10.60;99.90
1996;DHT22;38556;47.068;15.408;2023-04-01T06:58:16;10.60;99.90
1996;DHT22;38556;47.068;15.408;2023-04-01T07:00:53;10.70;99.90
1996;DHT22;38556;47.068;15.408;2023-04-01T07:03:30;10.70;99.90
1996;DHT22;38556;47.068;15.408;2023-04-01T07:06:04;10.80;99.90
1996;DHT22;38556;47.068;15.408;2023-04-01T07:08:38;10.80;99.90
1996;DHT22;38556;47.068;15.408;2023-04-01T07:11:16;11.00;99.90
1996;DHT22;38556;47.068;15.408;2023-04-01T07:13:48;11.00;99.90
1996;DHT22;38556;47.068;15.408;2023-04-01T07:16:20;10.90;99.90
1996;DHT22;38556;47.068;15.408;2023-04-01T07:18:51;10.90;99.90
1996;DHT22;38556;47.068;15.408;2023-04-01T07:21:28;11.10;99.90
1996;DHT22;38556;47.068;15.408;2023-04-01T07:24:00;11.30;99.90
1996;DHT22;38556;47.068;15.408;2023-04-01T07:26:30;11.20;99.90
1996;DHT22;38556;47.068;15.408;2023-04-01T07:28:57;11.30;99.90
1996;DHT22;38556;47.068;15.408;2023-04-01T07:31:48;11.30;99.90
1996;DHT22;38556;47.068;15.408;2023-04-01T07:34:21;11.50;99.90
1996;DHT22;38556;47.068;15.408;2023-04-01T07:36:54;11.50;99.90
1996;DHT22;38556;47.068;15.408;2023-04-01T07:39:34;11.50;99.90
1996;DHT22;38556;47.068;15.408;2023-04-01T07:44:44;11.70;99.90
1996;DHT22;38556;47.068;15.408;2023-04-01T07:47:25;11.90;99.90
1996;DHT22;38556;47.068;15.408;2023-04-01T07:50:04;11.90;99.90
1996;DHT22;38556;47.068;15.408;2023-04-01T07:52:40;11.90;99.90
1996;DHT22;38556;47.068;15.408;2023-04-01T07:55:14;12.10;99.90
1996;DHT22;38556;47.068;15.408;2023-04-01T07:57:51;12.20;99.90
1996;DHT22;38556;47.068;15.408;2023-04-01T08:00:22;12.20;99.90
1996;DHT22;38556;47.068;15.408;2023-04-01T08:03:03;12.20;99.90
1996;DHT22;38556;47.068;15.408;2023-04-01T08:05:36;12.40;99.90
1996;DHT22;38556;47.068;15.408;2023-04-01T08:08:13;12.40;99.90
1996;DHT22;38556;47.068;15.408;2023-04-01T08:10:48;12.60;99.90
1996;DHT22;38556;47.068;15.408;2023-04-01T08:13:26;12.90;99.90
1996;DHT22;38556;47.068;15.408;2023-04-01T08:16:02;12.60;99.90
1996;DHT22;38556;47.068;15.408;2023-04-01T08:18:39;12.60;99.90
1996;DHT22;38556;47.068;15.408;2023-04-01T08:21:12;12.80;99.90
1996;DHT22;38556;47.068;15.408;2023-04-01T08:23:44;12.90;99.90
1996;DHT22;38556;47.068;15.408;2023-04-01T08:26:17;13.10;99.90
1996;DHT22;38556;47.068;15.408;2023-04-01T08:28:53;13.10;99.90
1996;DHT22;38556;47.068;15.408;2023-04-01T08:31:25;13.20;99.90
1996;DHT22;38556;47.068;15.408;2023-04-01T08:33:57;13.20;99.90
1996;DHT22;38556;47.068;15.408;2023-04-01T08:36:26;17.30;99.90
1996;DHT22;38556;47.068;15.408;2023-04-01T08:38:59;13.20;99.90
1996;DHT22;38556;47.068;15.408;2023-04-01T08:41:54;13.40;99.90
1996;DHT22;38556;47.068;15.408;2023-04-01T08:44:58;13.40;99.90
1996;DHT22;38556;47.068;15.408;2023-04-01T08:50:42;13.40;99.90
1996;DHT22;38556;47.068;15.408;2023-04-01T08:53:21;13.30;99.90
1996;DHT22;38556;47.068;15.408;2023-04-01T08:56:03;13.30;99.90
1996;DHT22;38556;47.068;15.408;2023-04-01T09:02:04;13.50;99.90
1996;DHT22;38556;47.068;15.408;2023-04-01T09:04:59;13.80;99.90
1996;DHT22;38556;47.068;15.408;2023-04-01T09:07:40;13.70;99.90
1996;DHT22;38556;47.068;15.408;2023-04-01T09:10:31;13.70;99.90
1996;DHT22;38556;47.068;15.408;2023-04-01T09:16:27;13.80;99.90
1996;DHT22;38556;47.068;15.408;2023-04-01T09:19:17;13.90;99.90
1996;DHT22;38556;47.068;15.408;2023-04-01T09:27:56;14.30;99.90
1996;DHT22;38556;47.068;15.408;2023-04-01T09:34:06;14.50;98.90
1996;DHT22;38556;47.068;15.408;2023-04-01T09:36:44;14.40;98.70
1996;DHT22;38556;47.068;15.408;2023-04-01T09:39:34;14.40;99.00
1996;DHT22;38556;47.068;15.408;2023-04-01T09:42:14;14.30;98.50
1996;DHT22;38556;47.068;15.408;2023-04-01T09:44:47;14.30;99.10
1996;DHT22;38556;47.068;15.408;2023-04-01T09:50:14;14.20;99.90
1996;DHT22;38556;47.068;15.408;2023-04-01T09:52:51;14.20;99.90
1996;DHT22;38556;47.068;15.408;2023-04-01T09:59:07;14.20;98.60
1996;DHT22;38556;47.068;15.408;2023-04-01T10:15:05;14.10;92.90
1996;DHT22;38556;47.068;15.408;2023-04-01T10:20:52;14.20;87.50
1996;DHT22;38556;47.068;15.408;2023-04-01T10:26:19;14.20;84.40
1996;DHT22;38556;47.068;15.408;2023-04-01T10:29:19;14.20;84.00
1996;DHT22;38556;47.068;15.408;2023-04-01T10:44:29;14.10;78.60
1996;DHT22;38556;47.068;15.408;2023-04-01T10:50:25;14.10;79.90
1996;DHT22;38556;47.068;15.408;2023-04-01T10:53:38;14.10;79.50
1996;DHT22;38556;47.068;15.408;2023-04-01T10:59:33;14.10;78.40
1996;DHT22;38556;47.068;15.408;2023-04-01T11:23:50;14.30;80.90
1996;DHT22;38556;47.068;15.408;2023-04-01T11:26:32;14.30;79.40
1996;DHT22;38556;47.068;15.408;2023-04-01T11:29:34;14.40;79.00
1996;DHT22;38556;47.068;15.408;2023-04-01T11:32:13;14.40;79.30
1996;DHT22;38556;47.068;15.408;2023-04-01T11:34:59;14.40;79.00
1996;DHT22;38556;47.068;15.408;2023-04-01T11:37:37;14.50;75.20
1996;DHT22;38556;47.068;15.408;2023-04-01T11:40:17;14.40;74.20
1996;DHT22;38556;47.068;15.408;2023-04-01T11:42:53;14.30;74.30
1996;DHT22;38556;47.068;15.408;2023-04-01T11:45:31;14.20;74.40
1996;DHT22;38556;47.068;15.408;2023-04-01T11:57:31;14.60;73.80
1996;DHT22;38556;47.068;15.408;2023-04-01T12:00:14;14.60;74.60
1996;DHT22;38556;47.068;15.408;2023-04-01T12:02:57;14.60;74.90
1996;DHT22;38556;47.068;15.408;2023-04-01T12:05:41;14.70;75.00
1996;DHT22;38556;47.068;15.408;2023-04-01T12:08:30;14.50;72.20
1996;DHT22;38556;47.068;15.408;2023-04-01T12:11:09;14.30;72.50
1996;DHT22;38556;47.068;15.408;2023-04-01T12:13:48;14.60;80.40
1996;DHT22;38556;47.068;15.408;2023-04-01T12:16:26;15.20;94.10
1996;DHT22;38556;47.068;15.408;2023-04-01T12:19:01;15.60;95.80
1996;DHT22;38556;47.068;15.408;2023-04-01T12:21:36;15.90;92.30
1996;DHT22;38556;47.068;15.408;2023-04-01T12:24:36;16.20;90.30
1996;DHT22;38556;47.068;15.408;2023-04-01T12:27:21;16.70;87.80
1996;DHT22;38556;47.068;15.408;2023-04-01T12:30:18;16.70;86.50
1996;DHT22;38556;47.068;15.408;2023-04-01T12:32:55;16.80;86.40
1996;DHT22;38556;47.068;15.408;2023-04-01T12:35:39;16.50;76.40
1996;DHT22;38556;47.068;15.408;2023-04-01T12:38:22;16.30;73.60
1996;DHT22;38556;47.068;15.408;2023-04-01T12:41:08;16.10;76.40
1996;DHT22;38556;47.068;15.408;2023-04-01T12:44:02;15.90;70.40
1996;DHT22;38556;47.068;15.408;2023-04-01T12:49:27;16.00;74.20
1996;DHT22;38556;47.068;15.408;2023-04-01T12:52:09;15.80;71.10
1996;DHT22;38556;47.068;15.408;2023-04-01T12:55:07;15.60;71.40
1996;DHT22;38556;47.068;15.408;2023-04-01T12:57:56;15.30;70.40
1996;DHT22;38556;47.068;15.408;2023-04-01T13:00:43;15.30;68.70
1996;DHT22;38556;47.068;15.408;2023-04-01T13:03:21;15.10;69.30
1996;DHT22;38556;47.068;15.408;2023-04-01T13:06:17;15.10;67.60
1996;DHT22;38556;47.068;15.408;2023-04-01T13:08:52;15.20;65.90
1996;DHT22;38556;47.068;15.408;2023-04-01T13:11:30;15.10;65.60
1996;DHT22;38556;47.068;15.408;2023-04-01T13:17:17;14.80;64.30
1996;DHT22;38556;47.068;15.408;2023-04-01T13:19:49;14.80;64.90
1996;DHT22;38556;47.068;15.408;2023-04-01T13:22:25;14.90;65.00
1996;DHT22;38556;47.068;15.408;2023-04-01T13:25:02;15.10;65.30
1996;DHT22;38556;47.068;15.408;2023-04-01T13:27:35;15.10;64.60
1996;DHT22;38556;47.068;15.408;2023-04-01T13:30:20;15.00;65.10
1996;DHT22;38556;47.068;15.408;2023-04-01T13:32:58;15.00;65.00
1996;DHT22;38556;47.068;15.408;2023-04-01T13:35:36;15.10;63.10
1996;DHT22;38556;47.068;15.408;2023-04-01T13:41:07;15.00;64.00
1996;DHT22;38556;47.068;15.408;2023-04-01T13:43:41;15.30;76.80
1996;DHT22;38556;47.068;15.408;2023-04-01T13:46:28;15.60;66.60
1996;DHT22;38556;47.068;15.408;2023-04-01T13:49:25;15.70;63.40
1996;DHT22;38556;47.068;15.408;2023-04-01T13:52:05;15.70;63.50
1996;DHT22;38556;47.068;15.408;2023-04-01T13:54:52;15.70;62.60
1996;DHT22;38556;47.068;15.408;2023-04-01T13:57:40;15.80;62.30
1996;DHT22;38556;47.068;15.408;2023-04-01T14:00:25;15.90;62.60
1996;DHT22;38556;47.068;15.408;2023-04-01T14:03:20;16.00;62.10
1996;DHT22;38556;47.068;15.408;2023-04-01T14:06:09;16.10;61.40
1996;DHT22;38556;47.068;15.408;2023-04-01T14:08:55;16.10;63.00
1996;DHT22;38556;47.068;15.408;2023-04-01T14:11:34;16.10;61.90
1996;DHT22;38556;47.068;15.408;2023-04-01T14:14:14;16.20;61.70
1996;DHT22;38556;47.068;15.408;2023-04-01T14:17:03;16.40;59.90
1996;DHT22;38556;47.068;15.408;2023-04-01T14:19:52;16.40;60.00
1996;DHT22;38556;47.068;15.408;2023-04-01T14:22:32;16.70;60.50
1996;DHT22;38556;47.068;15.408;2023-04-01T14:25:31;16.80;58.60
1996;DHT22;38556;47.068;15.408;2023-04-01T14:28:12;16.90;60.40
1996;DHT22;38556;47.068;15.408;2023-04-01T14:30:55;17.20;59.90
1996;DHT22;38556;47.068;15.408;2023-04-01T14:33:35;17.30;59.50
1996;DHT22;38556;47.068;15.408;2023-04-01T14:36:32;17.60;60.80
1996;DHT22;38556;47.068;15.408;2023-04-01T14:39:21;17.50;59.10
1996;DHT22;38556;47.068;15.408;2023-04-01T14:41:59;17.60;58.50
1996;DHT22;38556;47.068;15.408;2023-04-01T14:44:52;17.70;58.80
1996;DHT22;38556;47.068;15.408;2023-04-01T14:47:34;17.90;58.70
1996;DHT22;38556;47.068;15.408;2023-04-01T14:50:11;18.00;58.80
1996;DHT22;38556;47.068;15.408;2023-04-01T14:52:43;18.20;57.90
1996;DHT22;38556;47.068;15.408;2023-04-01T14:55:26;18.20;57.40
1996;DHT22;38556;47.068;15.408;2023-04-01T14:58:11;18.40;66.20
1996;DHT22;38556;47.068;15.408;2023-04-01T15:00:47;21.90;76.70
1996;DHT22;38556;47.068;15.408;2023-04-01T15:03:20;19.10;69.10
1996;DHT22;38556;47.068;15.408;2023-04-01T15:05:52;19.10;64.90
1996;DHT22;38556;47.068;15.408;2023-04-01T15:08:24;19.40;67.80
1996;DHT22;38556;47.068;15.408;2023-04-01T15:14:05;19.90;59.80
1996;DHT22;38556;47.068;15.408;2023-04-01T15:16:44;20.20;67.00
1996;DHT22;38556;47.068;15.408;2023-04-01T15:19:22;20.40;63.00
1996;DHT22;38556;47.068;15.408;2023-04-01T15:24:47;21.10;60.90
1996;DHT22;38556;47.068;15.408;2023-04-01T15:27:27;21.40;63.00
1996;DHT22;38556;47.068;15.408;2023-04-01T15:30:14;21.70;60.90
1996;DHT22;38556;47.068;15.408;2023-04-01T15:33:00;21.80;62.50
1996;DHT22;38556;47.068;15.408;2023-04-01T15:35:37;22.00;59.50
1996;DHT22;38556;47.068;15.408;2023-04-01T15:38:11;22.20;59.50
1996;DHT22;38556;47.068;15.408;2023-04-01T15:40:45;22.30;60.00
1996;DHT22;38556;47.068;15.408;2023-04-01T15:43:27;22.50;59.40
1996;DHT22;38556;47.068;15.408;2023-04-01T15:46:15;22.80;59.20
1996;DHT22;38556;47.068;15.408;2023-04-01T15:48:58;23.40;56.80
1996;DHT22;38556;47.068;15.408;2023-04-01T15:57:28;24.30;54.10
1996;DHT22;38556;47.068;15.408;2023-04-01T16:00:11;24.70;54.00
1996;DHT22;38556;47.068;15.408;2023-04-01T16:02:46;24.70;54.60
1996;DHT22;38556;47.068;15.408;2023-04-01T16:05:27;25.10;53.40
1996;DHT22;38556;47.068;15.408;2023-04-01T16:29:05;24.50;52.50
1996;DHT22;38556;47.068;15.408;2023-04-01T16:31:38;25.10;52.40
1996;DHT22;38556;47.068;15.408;2023-04-01T16:34:16;26.20;51.30
1996;DHT22;38556;47.068;15.408;2023-04-01T16:36:48;26.60;50.60
1996;DHT22;38556;47.068;15.408;2023-04-01T16:39:27;27.40;48.90
1996;DHT22;38556;47.068;15.408;2023-04-01T16:44:59;27.80;47.80
1996;DHT22;38556;47.068;15.408;2023-04-01T16:47:30;26.80;47.50
1996;DHT22;38556;47.068;15.408;2023-04-01T16:50:06;26.20;47.40
1996;DHT22;38556;47.068;15.408;2023-04-01T16:52:54;25.30;47.00
1996;DHT22;38556;47.068;15.408;2023-04-01T16:55:35;25.10;46.00
1996;DHT22;38556;47.068;15.408;2023-04-01T16:58:10;21.90;47.70
1996;DHT22;38556;47.068;15.408;2023-04-01T17:00:48;21.90;48.30
1996;DHT22;38556;47.068;15.408;2023-04-01T17:03:21;21.90;48.20
1996;DHT22;38556;47.068;15.408;2023-04-01T17:08:34;21.40;48.70
1996;DHT22;38556;47.068;15.408;2023-04-01T17:11:10;19.80;49.80
1996;DHT22;38556;47.068;15.408;2023-04-01T17:13:47;19.40;50.90
1996;DHT22;38556;47.068;15.408;2023-04-01T17:16:41;18.70;52.30
1996;DHT22;38556;47.068;15.408;2023-04-01T17:19:25;18.10;53.20
1996;DHT22;38556;47.068;15.408;2023-04-01T17:22:01;18.30;53.40
1996;DHT22;38556;47.068;15.408;2023-04-01T17:24:41;18.40;53.50
1996;DHT22;38556;47.068;15.408;2023-04-01T17:30:12;18.70;53.60
1996;DHT22;38556;47.068;15.408;2023-04-01T17:35:42;17.80;54.00
1996;DHT22;38556;47.068;15.408;2023-04-01T17:38:19;17.40;55.00
1996;DHT22;38556;47.068;15.408;2023-04-01T17:40:59;17.00;56.00
1996;DHT22;38556;47.068;15.408;2023-04-01T17:43:39;16.60;57.00
1996;DHT22;38556;47.068;15.408;2023-04-01T17:46:24;16.20;57.30
1996;DHT22;38556;47.068;15.408;2023-04-01T17:49:02;16.10;58.30
1996;DHT22;38556;47.068;15.408;2023-04-01T17:54:20;15.80;58.90
1996;DHT22;38556;47.068;15.408;2023-04-01T17:57:02;15.80;59.30
1996;DHT22;38556;47.068;15.408;2023-04-01T17:59:37;15.80;59.30
1996;DHT22;38556;47.068;15.408;2023-04-01T18:02:16;15.90;59.40
1996;DHT22;38556;47.068;15.408;2023-04-01T18:05:17;15.80;59.50
1996;DHT22;38556;47.068;15.408;2023-04-01T18:08:15;13.70;58.90
1996;DHT22;38556;47.068;15.408;2023-04-01T18:10:55;15.00;60.90
1996;DHT22;38556;47.068;15.408;2023-04-01T18:13:37;14.60;61.10
1996;DHT22;38556;47.068;15.408;2023-04-01T18:16:17;14.70;61.70
1996;DHT22;38556;47.068;15.408;2023-04-01T18:18:56;14.60;61.50
1996;DHT22;38556;47.068;15.408;2023-04-01T18:21:35;14.50;61.70
1996;DHT22;38556;47.068;15.408;2023-04-01T18:24:14;14.30;63.00
1996;DHT22;38556;47.068;15.408;2023-04-01T18:26:46;14.10;63.40
1996;DHT22;38556;47.068;15.408;2023-04-01T18:29:26;14.20;63.90
1996;DHT22;38556;47.068;15.408;2023-04-01T18:32:08;14.20;64.20
1996;DHT22;38556;47.068;15.408;2023-04-01T18:37:18;14.00;64.80
1996;DHT22;38556;47.068;15.408;2023-04-01T18:39:50;13.90;65.30
1996;DHT22;38556;47.068;15.408;2023-04-01T18:42:29;13.90;66.20
1996;DHT22;38556;47.068;15.408;2023-04-01T18:45:08;13.90;66.90
1996;DHT22;38556;47.068;15.408;2023-04-01T18:47:42;13.90;67.10
1996;DHT22;38556;47.068;15.408;2023-04-01T18:50:21;13.90;67.00
1996;DHT22;38556;47.068;15.408;2023-04-01T18:52:56;13.80;68.70
1996;DHT22;38556;47.068;15.408;2023-04-01T18:55:33;13.70;68.40
1996;DHT22;38556;47.068;15.408;2023-04-01T18:58:18;13.60;67.90
1996;DHT22;38556;47.068;15.408;2023-04-01T19:00:55;13.70;68.70
1996;DHT22;38556;47.068;15.408;2023-04-01T19:03:34;13.80;70.20
1996;DHT22;38556;47.068;15.408;2023-04-01T19:06:15;13.80;69.60
1996;DHT22;38556;47.068;15.408;2023-04-01T19:08:46;13.70;69.00
1996;DHT22;38556;47.068;15.408;2023-04-01T19:11:23;13.80;69.40
1996;DHT22;38556;47.068;15.408;2023-04-01T19:14:00;13.70;69.50
1996;DHT22;38556;47.068;15.408;2023-04-01T19:16:40;13.70;69.80
1996;DHT22;38556;47.068;15.408;2023-04-01T19:19:29;13.80;69.70
1996;DHT22;38556;47.068;15.408;2023-04-01T19:28:02;14.00;70.80
1996;DHT22;38556;47.068;15.408;2023-04-01T19:30:46;13.70;71.40